sensor_id;sensor_type;location;lat;lon;timestamp;P1;durP1;ratioP1;P2;durP2;ratioP2
73512;SDS011;61754;55.008;73.348;2022-08-25T00:00:20;59.20;;;30.42;;
73512;SDS011;61754;55.008;73.348;2022-08-25T00:02:57;68.10;;;35.03;;
73512;SDS011;61754;55.008;73.348;2022-08-25T00:05:26;71.07;;;33.20;;
73512;SDS011;61754;55.008;73.348;2022-08-25T00:07:53;61.28;;;30.25;;
73512;SDS011;61754;55.008;73.348;2022-08-25T00:10:19;60.38;;;30.52;;
73512;SDS011;61754;55.008;73.348;2022-08-25T00:12:45;66.63;;;33.88;;
73512;SDS011;61754;55.008;73.348;2022-08-25T00:15:11;70.55;;;35.00;;
73512;SDS011;61754;55.008;73.348;2022-08-25T00:17:38;70.13;;;33.80;;
73512;SDS011;61754;55.008;73.348;2022-08-25T00:20:04;70.95;;;34.85;;
73512;SDS011;61754;55.008;73.348;2022-08-25T00:22:31;67.93;;;32.53;;
73512;SDS011;61754;55.008;73.348;2022-08-25T00:25:02;70.28;;;32.92;;
73512;SDS011;61754;55.008;73.348;2022-08-25T00:27:28;76.03;;;34.60;;
73512;SDS011;61754;55.008;73.348;2022-08-25T00:29:54;72.68;;;36.05;;
73512;SDS011;61754;55.008;73.348;2022-08-25T00:32:20;82.75;;;38.17;;
73512;SDS011;61754;55.008;73.348;2022-08-25T00:34:46;89.47;;;39.78;;
73512;SDS011;61754;55.008;73.348;2022-08-25T00:37:12;96.10;;;45.80;;
73512;SDS011;61754;55.008;73.348;2022-08-25T00:39:38;118.95;;;51.90;;
73512;SDS011;61754;55.008;73.348;2022-08-25T00:42:05;111.35;;;53.30;;
73512;SDS011;61754;55.008;73.348;2022-08-25T00:44:35;85.47;;;46.92;;
73512;SDS011;61754;55.008;73.348;2022-08-25T00:47:02;96.95;;;49.72;;
73512;SDS011;61754;55.008;73.348;2022-08-25T00:50:10;99.60;;;49.33;;
73512;SDS011;61754;55.008;73.348;2022-08-25T00:52:19;88.45;;;45.95;;
73512;SDS011;61754;55.008;73.348;2022-08-25T00:54:53;94.65;;;41.17;;
73512;SDS011;61754;55.008;73.348;2022-08-25T00:57:21;88.22;;;43.13;;
73512;SDS011;61754;55.008;73.348;2022-08-25T00:59:54;82.43;;;41.97;;
73512;SDS011;61754;55.008;73.348;2022-08-25T01:02:21;97.40;;;40.35;;
73512;SDS011;61754;55.008;73.348;2022-08-25T01:04:48;82.72;;;41.25;;
73512;SDS011;61754;55.008;73.348;2022-08-25T01:07:14;82.97;;;37.80;;
73512;SDS011;61754;55.008;73.348;2022-08-25T01:09:41;60.92;;;32.15;;
73512;SDS011;61754;55.008;73.348;2022-08-25T01:12:08;82.80;;;36.92;;
73512;SDS011;61754;55.008;73.348;2022-08-25T01:14:35;94.35;;;37.88;;
73512;SDS011;61754;55.008;73.348;2022-08-25T01:17:13;59.95;;;30.13;;
73512;SDS011;61754;55.008;73.348;2022-08-25T01:19:39;67.65;;;29.92;;
73512;SDS011;61754;55.008;73.348;2022-08-25T01:22:05;70.32;;;27.67;;
73512;SDS011;61754;55.008;73.348;2022-08-25T01:24:46;68.03;;;28.50;;
73512;SDS011;61754;55.008;73.348;2022-08-25T01:27:15;55.35;;;23.73;;
73512;SDS011;61754;55.008;73.348;2022-08-25T01:29:41;50.35;;;22.98;;
73512;SDS011;61754;55.008;73.348;2022-08-25T01:32:08;57.17;;;22.67;;
73512;SDS011;61754;55.008;73.348;2022-08-25T01:34:36;60.17;;;22.55;;
73512;SDS011;61754;55.008;73.348;2022-08-25T01:37:03;61.17;;;24.95;;
73512;SDS011;61754;55.008;73.348;2022-08-25T01:39:29;50.22;;;20.58;;
73512;SDS011;61754;55.008;73.348;2022-08-25T01:44:23;42.05;;;19.63;;
73512;SDS011;61754;55.008;73.348;2022-08-25T01:46:50;50.90;;;19.58;;
73512;SDS011;61754;55.008;73.348;2022-08-25T01:49:16;66.25;;;22.60;;
73512;SDS011;61754;55.008;73.348;2022-08-25T01:51:56;56.83;;;21.10;;
73512;SDS011;61754;55.008;73.348;2022-08-25T01:54:24;48.72;;;18.25;;
73512;SDS011;61754;55.008;73.348;2022-08-25T01:57:00;46.67;;;18.65;;
73512;SDS011;61754;55.008;73.348;2022-08-25T01:59:31;41.78;;;17.63;;
73512;SDS011;61754;55.008;73.348;2022-08-25T02:02:07;45.33;;;17.17;;
73512;SDS011;61754;55.008;73.348;2022-08-25T02:04:33;42.65;;;16.45;;
73512;SDS011;61754;55.008;73.348;2022-08-25T02:07:00;33.00;;;15.85;;
73512;SDS011;61754;55.008;73.348;2022-08-25T02:09:27;34.22;;;14.45;;
73512;SDS011;61754;55.008;73.348;2022-08-25T02:11:53;39.55;;;13.43;;
73512;SDS011;61754;55.008;73.348;2022-08-25T02:14:24;33.20;;;13.50;;
73512;SDS011;61754;55.008;73.348;2022-08-25T02:16:51;20.13;;;11.23;;
73512;SDS011;61754;55.008;73.348;2022-08-25T02:19:17;33.72;;;12.25;;
73512;SDS011;61754;55.008;73.348;2022-08-25T02:21:45;36.47;;;13.48;;
73512;SDS011;61754;55.008;73.348;2022-08-25T02:24:11;32.42;;;13.05;;
73512;SDS011;61754;55.008;73.348;2022-08-25T02:26:47;43.03;;;14.48;;
73512;SDS011;61754;55.008;73.348;2022-08-25T02:29:13;34.53;;;13.82;;
73512;SDS011;61754;55.008;73.348;2022-08-25T02:31:41;29.58;;;14.07;;
73512;SDS011;61754;55.008;73.348;2022-08-25T02:34:08;41.10;;;13.38;;
73512;SDS011;61754;55.008;73.348;2022-08-25T02:36:35;34.03;;;12.60;;
73512;SDS011;61754;55.008;73.348;2022-08-25T02:39:02;37.72;;;13.70;;
73512;SDS011;61754;55.008;73.348;2022-08-25T02:41:28;31.17;;;11.80;;
73512;SDS011;61754;55.008;73.348;2022-08-25T02:43:55;34.85;;;11.70;;
73512;SDS011;61754;55.008;73.348;2022-08-25T02:46:22;28.55;;;11.55;;
73512;SDS011;61754;55.008;73.348;2022-08-25T02:48:49;32.83;;;12.70;;
73512;SDS011;61754;55.008;73.348;2022-08-25T02:51:22;41.83;;;12.00;;
73512;SDS011;61754;55.008;73.348;2022-08-25T02:53:49;38.08;;;11.82;;
73512;SDS011;61754;55.008;73.348;2022-08-25T02:56:15;31.10;;;12.07;;
73512;SDS011;61754;55.008;73.348;2022-08-25T02:58:43;30.33;;;11.57;;
73512;SDS011;61754;55.008;73.348;2022-08-25T03:01:10;36.70;;;11.98;;
73512;SDS011;61754;55.008;73.348;2022-08-25T03:03:37;30.92;;;12.00;;
73512;SDS011;61754;55.008;73.348;2022-08-25T03:06:09;33.65;;;11.93;;
73512;SDS011;61754;55.008;73.348;2022-08-25T03:08:41;38.88;;;11.40;;
73512;SDS011;61754;55.008;73.348;2022-08-25T03:11:07;36.65;;;11.73;;
73512;SDS011;61754;55.008;73.348;2022-08-25T03:13:34;43.50;;;12.30;;
73512;SDS011;61754;55.008;73.348;2022-08-25T03:16:10;37.72;;;11.80;;
73512;SDS011;61754;55.008;73.348;2022-08-25T03:18:39;43.10;;;11.48;;
73512;SDS011;61754;55.008;73.348;2022-08-25T03:21:06;30.73;;;11.68;;
73512;SDS011;61754;55.008;73.348;2022-08-25T03:23:33;28.23;;;10.40;;
73512;SDS011;61754;55.008;73.348;2022-08-25T03:26:00;36.50;;;10.75;;
73512;SDS011;61754;55.008;73.348;2022-08-25T03:28:55;36.83;;;10.45;;
73512;SDS011;61754;55.008;73.348;2022-08-25T03:31:24;33.63;;;9.95;;
73512;SDS011;61754;55.008;73.348;2022-08-25T03:33:57;37.35;;;9.75;;
73512;SDS011;61754;55.008;73.348;2022-08-25T03:36:23;41.40;;;10.82;;
73512;SDS011;61754;55.008;73.348;2022-08-25T03:38:54;49.53;;;10.63;;
73512;SDS011;61754;55.008;73.348;2022-08-25T03:41:24;31.48;;;8.82;;
73512;SDS011;61754;55.008;73.348;2022-08-25T03:43:51;32.03;;;8.50;;
73512;SDS011;61754;55.008;73.348;2022-08-25T03:46:29;28.30;;;8.05;;
73512;SDS011;61754;55.008;73.348;2022-08-25T03:48:56;38.45;;;8.50;;
73512;SDS011;61754;55.008;73.348;2022-08-25T03:51:24;29.58;;;7.57;;
73512;SDS011;61754;55.008;73.348;2022-08-25T03:53:51;26.40;;;7.03;;
73512;SDS011;61754;55.008;73.348;2022-08-25T03:56:18;27.42;;;7.75;;
73512;SDS011;61754;55.008;73.348;2022-08-25T03:58:44;25.58;;;7.28;;
73512;SDS011;61754;55.008;73.348;2022-08-25T04:01:10;33.33;;;8.30;;
73512;SDS011;61754;55.008;73.348;2022-08-25T04:03:47;33.45;;;7.65;;
73512;SDS011;61754;55.008;73.348;2022-08-25T04:06:17;38.90;;;7.25;;
73512;SDS011;61754;55.008;73.348;2022-08-25T04:08:44;24.13;;;5.60;;
73512;SDS011;61754;55.008;73.348;2022-08-25T04:11:12;34.95;;;7.15;;
73512;SDS011;61754;55.008;73.348;2022-08-25T04:13:49;16.27;;;6.43;;
73512;SDS011;61754;55.008;73.348;2022-08-25T04:16:17;25.27;;;5.90;;
73512;SDS011;61754;55.008;73.348;2022-08-25T04:18:44;28.40;;;6.40;;
73512;SDS011;61754;55.008;73.348;2022-08-25T04:21:10;26.63;;;6.70;;
73512;SDS011;61754;55.008;73.348;2022-08-25T04:23:38;21.00;;;5.72;;
73512;SDS011;61754;55.008;73.348;2022-08-25T04:26:16;40.40;;;6.25;;
73512;SDS011;61754;55.008;73.348;2022-08-25T04:28:44;29.73;;;5.72;;
73512;SDS011;61754;55.008;73.348;2022-08-25T04:31:11;33.78;;;5.55;;
73512;SDS011;61754;55.008;73.348;2022-08-25T04:33:49;26.77;;;6.05;;
73512;SDS011;61754;55.008;73.348;2022-08-25T04:36:15;36.47;;;6.28;;
73512;SDS011;61754;55.008;73.348;2022-08-25T04:38:42;27.08;;;5.55;;
73512;SDS011;61754;55.008;73.348;2022-08-25T04:41:09;28.73;;;5.70;;
73512;SDS011;61754;55.008;73.348;2022-08-25T04:43:35;22.83;;;5.63;;
73512;SDS011;61754;55.008;73.348;2022-08-25T04:46:06;23.13;;;5.88;;
73512;SDS011;61754;55.008;73.348;2022-08-25T04:48:32;20.27;;;5.60;;
73512;SDS011;61754;55.008;73.348;2022-08-25T04:51:02;25.13;;;5.00;;
73512;SDS011;61754;55.008;73.348;2022-08-25T04:53:28;21.42;;;4.97;;
73512;SDS011;61754;55.008;73.348;2022-08-25T04:55:54;19.77;;;4.70;;
73512;SDS011;61754;55.008;73.348;2022-08-25T04:58:20;26.25;;;5.07;;
73512;SDS011;61754;55.008;73.348;2022-08-25T05:00:47;22.95;;;4.55;;
73512;SDS011;61754;55.008;73.348;2022-08-25T05:03:13;16.35;;;4.25;;
73512;SDS011;61754;55.008;73.348;2022-08-25T05:05:50;18.23;;;4.63;;
73512;SDS011;61754;55.008;73.348;2022-08-25T05:08:16;13.38;;;4.30;;
73512;SDS011;61754;55.008;73.348;2022-08-25T05:10:42;15.50;;;4.15;;
73512;SDS011;61754;55.008;73.348;2022-08-25T05:13:09;21.73;;;4.35;;
73512;SDS011;61754;55.008;73.348;2022-08-25T05:15:35;23.17;;;5.22;;
73512;SDS011;61754;55.008;73.348;2022-08-25T05:18:16;21.88;;;4.05;;
73512;SDS011;61754;55.008;73.348;2022-08-25T05:20:43;14.07;;;4.07;;
73512;SDS011;61754;55.008;73.348;2022-08-25T05:23:09;25.63;;;4.10;;
73512;SDS011;61754;55.008;73.348;2022-08-25T05:25:36;17.00;;;3.92;;
73512;SDS011;61754;55.008;73.348;2022-08-25T05:28:07;11.85;;;3.72;;
73512;SDS011;61754;55.008;73.348;2022-08-25T05:30:39;13.10;;;3.67;;
73512;SDS011;61754;55.008;73.348;2022-08-25T05:33:05;17.58;;;4.30;;
73512;SDS011;61754;55.008;73.348;2022-08-25T05:35:41;15.85;;;4.03;;
73512;SDS011;61754;55.008;73.348;2022-08-25T05:38:17;17.02;;;4.10;;
73512;SDS011;61754;55.008;73.348;2022-08-25T05:40:43;16.80;;;3.85;;
73512;SDS011;61754;55.008;73.348;2022-08-25T05:43:09;14.90;;;3.60;;
73512;SDS011;61754;55.008;73.348;2022-08-25T05:45:46;17.15;;;4.38;;
73512;SDS011;61754;55.008;73.348;2022-08-25T05:48:13;13.38;;;3.50;;
73512;SDS011;61754;55.008;73.348;2022-08-25T05:50:49;15.60;;;3.53;;
73512;SDS011;61754;55.008;73.348;2022-08-25T05:53:15;16.52;;;3.28;;
73512;SDS011;61754;55.008;73.348;2022-08-25T05:55:46;12.63;;;3.22;;
73512;SDS011;61754;55.008;73.348;2022-08-25T05:58:12;12.40;;;2.97;;
73512;SDS011;61754;55.008;73.348;2022-08-25T06:00:38;11.13;;;2.78;;
73512;SDS011;61754;55.008;73.348;2022-08-25T06:03:05;15.88;;;2.80;;
73512;SDS011;61754;55.008;73.348;2022-08-25T06:05:31;15.13;;;2.83;;
73512;SDS011;61754;55.008;73.348;2022-08-25T06:07:57;20.17;;;3.00;;
73512;SDS011;61754;55.008;73.348;2022-08-25T06:10:23;10.02;;;2.67;;
73512;SDS011;61754;55.008;73.348;2022-08-25T06:12:50;18.08;;;3.20;;
73512;SDS011;61754;55.008;73.348;2022-08-25T06:15:17;10.45;;;2.53;;
73512;SDS011;61754;55.008;73.348;2022-08-25T06:17:44;10.13;;;2.85;;
73512;SDS011;61754;55.008;73.348;2022-08-25T06:20:16;12.10;;;3.00;;
73512;SDS011;61754;55.008;73.348;2022-08-25T06:22:53;16.58;;;2.35;;
73512;SDS011;61754;55.008;73.348;2022-08-25T06:25:20;9.50;;;2.70;;
73512;SDS011;61754;55.008;73.348;2022-08-25T06:27:51;14.82;;;2.90;;
73512;SDS011;61754;55.008;73.348;2022-08-25T06:30:27;12.80;;;2.85;;
73512;SDS011;61754;55.008;73.348;2022-08-25T06:32:53;9.07;;;2.30;;
73512;SDS011;61754;55.008;73.348;2022-08-25T06:35:19;9.27;;;2.53;;
73512;SDS011;61754;55.008;73.348;2022-08-25T06:37:55;13.38;;;2.22;;
73512;SDS011;61754;55.008;73.348;2022-08-25T06:40:21;6.60;;;2.50;;
73512;SDS011;61754;55.008;73.348;2022-08-25T06:42:52;13.32;;;2.20;;
73512;SDS011;61754;55.008;73.348;2022-08-25T06:45:27;30.00;;;3.40;;
73512;SDS011;61754;55.008;73.348;2022-08-25T06:47:55;9.35;;;3.10;;
73512;SDS011;61754;55.008;73.348;2022-08-25T06:50:21;11.00;;;2.45;;
73512;SDS011;61754;55.008;73.348;2022-08-25T06:52:48;5.95;;;2.42;;
73512;SDS011;61754;55.008;73.348;2022-08-25T06:55:14;9.88;;;2.80;;
73512;SDS011;61754;55.008;73.348;2022-08-25T06:57:40;9.98;;;2.38;;
73512;SDS011;61754;55.008;73.348;2022-08-25T07:00:06;10.32;;;2.85;;
73512;SDS011;61754;55.008;73.348;2022-08-25T07:02:40;13.60;;;2.60;;
73512;SDS011;61754;55.008;73.348;2022-08-25T07:05:17;6.97;;;2.70;;
73512;SDS011;61754;55.008;73.348;2022-08-25T07:07:43;9.27;;;3.17;;
73512;SDS011;61754;55.008;73.348;2022-08-25T07:10:11;6.55;;;2.38;;
73512;SDS011;61754;55.008;73.348;2022-08-25T07:12:38;3.78;;;2.17;;
73512;SDS011;61754;55.008;73.348;2022-08-25T07:15:04;10.40;;;2.90;;
73512;SDS011;61754;55.008;73.348;2022-08-25T07:17:30;8.25;;;2.60;;
73512;SDS011;61754;55.008;73.348;2022-08-25T07:19:59;13.13;;;2.67;;
73512;SDS011;61754;55.008;73.348;2022-08-25T07:22:25;10.68;;;2.67;;
73512;SDS011;61754;55.008;73.348;2022-08-25T07:24:53;7.15;;;2.67;;
73512;SDS011;61754;55.008;73.348;2022-08-25T07:27:19;14.10;;;2.97;;
73512;SDS011;61754;55.008;73.348;2022-08-25T07:29:56;13.45;;;3.05;;
73512;SDS011;61754;55.008;73.348;2022-08-25T07:32:22;13.45;;;2.92;;
73512;SDS011;61754;55.008;73.348;2022-08-25T07:34:59;11.48;;;3.10;;
73512;SDS011;61754;55.008;73.348;2022-08-25T07:37:40;10.43;;;2.70;;
73512;SDS011;61754;55.008;73.348;2022-08-25T07:40:08;18.33;;;2.50;;
73512;SDS011;61754;55.008;73.348;2022-08-25T07:42:34;6.85;;;2.85;;
73512;SDS011;61754;55.008;73.348;2022-08-25T07:45:01;21.58;;;3.25;;
73512;SDS011;61754;55.008;73.348;2022-08-25T07:47:27;7.93;;;2.95;;
73512;SDS011;61754;55.008;73.348;2022-08-25T07:49:53;12.00;;;3.28;;
73512;SDS011;61754;55.008;73.348;2022-08-25T07:52:19;10.00;;;3.50;;
73512;SDS011;61754;55.008;73.348;2022-08-25T07:54:48;8.20;;;2.78;;
73512;SDS011;61754;55.008;73.348;2022-08-25T07:57:14;14.60;;;3.70;;
73512;SDS011;61754;55.008;73.348;2022-08-25T07:59:41;10.38;;;2.80;;
73512;SDS011;61754;55.008;73.348;2022-08-25T08:02:08;7.10;;;3.05;;
73512;SDS011;61754;55.008;73.348;2022-08-25T08:04:35;7.80;;;2.70;;
73512;SDS011;61754;55.008;73.348;2022-08-25T08:07:01;12.13;;;2.70;;
73512;SDS011;61754;55.008;73.348;2022-08-25T08:09:27;10.95;;;3.70;;
73512;SDS011;61754;55.008;73.348;2022-08-25T08:11:55;13.27;;;3.88;;
73512;SDS011;61754;55.008;73.348;2022-08-25T08:14:33;13.30;;;4.25;;
73512;SDS011;61754;55.008;73.348;2022-08-25T08:16:59;9.32;;;3.97;;
73512;SDS011;61754;55.008;73.348;2022-08-25T08:19:29;18.30;;;4.35;;
73512;SDS011;61754;55.008;73.348;2022-08-25T08:21:55;22.38;;;5.88;;
73512;SDS011;61754;55.008;73.348;2022-08-25T08:24:21;15.60;;;5.07;;
73512;SDS011;61754;55.008;73.348;2022-08-25T08:26:47;11.75;;;4.20;;
73512;SDS011;61754;55.008;73.348;2022-08-25T08:29:13;20.00;;;4.38;;
73512;SDS011;61754;55.008;73.348;2022-08-25T08:31:40;14.82;;;4.18;;
73512;SDS011;61754;55.008;73.348;2022-08-25T08:34:06;10.05;;;4.57;;
73512;SDS011;61754;55.008;73.348;2022-08-25T08:36:32;14.18;;;3.58;;
73512;SDS011;61754;55.008;73.348;2022-08-25T08:38:58;8.98;;;3.67;;
73512;SDS011;61754;55.008;73.348;2022-08-25T08:52:17;13.90;;;4.40;;
73512;SDS011;61754;55.008;73.348;2022-08-25T08:54:44;8.98;;;4.05;;
73512;SDS011;61754;55.008;73.348;2022-08-25T08:57:18;10.63;;;3.75;;
73512;SDS011;61754;55.008;73.348;2022-08-25T08:59:48;8.98;;;4.40;;
73512;SDS011;61754;55.008;73.348;2022-08-25T09:02:17;15.13;;;4.47;;
73512;SDS011;61754;55.008;73.348;2022-08-25T09:04:53;18.58;;;5.32;;
73512;SDS011;61754;55.008;73.348;2022-08-25T09:07:21;20.13;;;5.53;;
73512;SDS011;61754;55.008;73.348;2022-08-25T09:09:54;20.48;;;6.53;;
73512;SDS011;61754;55.008;73.348;2022-08-25T09:12:35;19.05;;;5.07;;
73512;SDS011;61754;55.008;73.348;2022-08-25T09:22:45;11.73;;;4.25;;
73512;SDS011;61754;55.008;73.348;2022-08-25T09:25:31;7.45;;;3.65;;
73512;SDS011;61754;55.008;73.348;2022-08-25T09:28:06;7.25;;;4.43;;
73512;SDS011;61754;55.008;73.348;2022-08-25T09:30:38;10.95;;;4.07;;
73512;SDS011;61754;55.008;73.348;2022-08-25T09:33:06;9.93;;;4.00;;
73512;SDS011;61754;55.008;73.348;2022-08-25T09:35:33;13.00;;;4.78;;
73512;SDS011;61754;55.008;73.348;2022-08-25T09:38:01;12.23;;;4.82;;
73512;SDS011;61754;55.008;73.348;2022-08-25T09:40:28;13.10;;;4.28;;
73512;SDS011;61754;55.008;73.348;2022-08-25T09:45:42;15.07;;;4.90;;
73512;SDS011;61754;55.008;73.348;2022-08-25T09:48:30;7.53;;;4.55;;
73512;SDS011;61754;55.008;73.348;2022-08-25T09:50:58;11.02;;;4.38;;
73512;SDS011;61754;55.008;73.348;2022-08-25T09:53:26;19.65;;;4.57;;
73512;SDS011;61754;55.008;73.348;2022-08-25T09:55:55;10.13;;;4.95;;
73512;SDS011;61754;55.008;73.348;2022-08-25T09:58:24;10.48;;;4.20;;
73512;SDS011;61754;55.008;73.348;2022-08-25T10:01:32;11.52;;;4.43;;
73512;SDS011;61754;55.008;73.348;2022-08-25T10:06:24;11.07;;;4.32;;
73512;SDS011;61754;55.008;73.348;2022-08-25T10:09:05;17.10;;;4.78;;
73512;SDS011;61754;55.008;73.348;2022-08-25T10:11:36;7.38;;;3.92;;
73512;SDS011;61754;55.008;73.348;2022-08-25T10:14:15;10.27;;;4.83;;
73512;SDS011;61754;55.008;73.348;2022-08-25T10:16:42;11.15;;;4.22;;
73512;SDS011;61754;55.008;73.348;2022-08-25T10:19:10;9.43;;;4.22;;
73512;SDS011;61754;55.008;73.348;2022-08-25T10:21:38;8.68;;;3.95;;
73512;SDS011;61754;55.008;73.348;2022-08-25T10:24:05;19.35;;;4.90;;
73512;SDS011;61754;55.008;73.348;2022-08-25T10:31:50;19.65;;;5.97;;
73512;SDS011;61754;55.008;73.348;2022-08-25T10:36:55;24.52;;;6.15;;
73512;SDS011;61754;55.008;73.348;2022-08-25T10:39:37;26.50;;;7.13;;
73512;SDS011;61754;55.008;73.348;2022-08-25T10:47:43;19.80;;;5.43;;
73512;SDS011;61754;55.008;73.348;2022-08-25T10:53:04;21.88;;;6.68;;
73512;SDS011;61754;55.008;73.348;2022-08-25T10:55:39;19.92;;;6.15;;
73512;SDS011;61754;55.008;73.348;2022-08-25T10:58:25;19.98;;;6.05;;
73512;SDS011;61754;55.008;73.348;2022-08-25T11:01:08;17.30;;;5.85;;
73512;SDS011;61754;55.008;73.348;2022-08-25T11:03:49;25.48;;;5.70;;
73512;SDS011;61754;55.008;73.348;2022-08-25T11:06:34;13.13;;;5.13;;
73512;SDS011;61754;55.008;73.348;2022-08-25T11:09:09;11.20;;;4.68;;
73512;SDS011;61754;55.008;73.348;2022-08-25T11:11:38;23.13;;;5.97;;
73512;SDS011;61754;55.008;73.348;2022-08-25T11:14:09;16.90;;;5.50;;
73512;SDS011;61754;55.008;73.348;2022-08-25T11:16:41;22.92;;;6.80;;
73512;SDS011;61754;55.008;73.348;2022-08-25T11:21:52;16.25;;;5.78;;
73512;SDS011;61754;55.008;73.348;2022-08-25T11:24:33;20.40;;;6.45;;
73512;SDS011;61754;55.008;73.348;2022-08-25T11:27:00;19.70;;;6.40;;
73512;SDS011;61754;55.008;73.348;2022-08-25T11:29:29;29.65;;;8.88;;
73512;SDS011;61754;55.008;73.348;2022-08-25T11:31:58;16.50;;;5.80;;
73512;SDS011;61754;55.008;73.348;2022-08-25T11:34:26;18.40;;;5.60;;
73512;SDS011;61754;55.008;73.348;2022-08-25T11:37:04;17.40;;;4.28;;
73512;SDS011;61754;55.008;73.348;2022-08-25T11:39:57;8.30;;;4.70;;
73512;SDS011;61754;55.008;73.348;2022-08-25T11:48:00;11.30;;;4.40;;
73512;SDS011;61754;55.008;73.348;2022-08-25T11:50:33;9.63;;;5.30;;
73512;SDS011;61754;55.008;73.348;2022-08-25T12:00:57;8.27;;;4.82;;
73512;SDS011;61754;55.008;73.348;2022-08-25T12:08:47;11.00;;;5.72;;
73512;SDS011;61754;55.008;73.348;2022-08-25T12:14:17;13.75;;;6.18;;
73512;SDS011;61754;55.008;73.348;2022-08-25T12:19:25;12.55;;;6.07;;
73512;SDS011;61754;55.008;73.348;2022-08-25T12:27:30;15.30;;;5.88;;
73512;SDS011;61754;55.008;73.348;2022-08-25T12:32:44;16.90;;;6.72;;
73512;SDS011;61754;55.008;73.348;2022-08-25T12:35:22;21.08;;;6.57;;
73512;SDS011;61754;55.008;73.348;2022-08-25T12:37:55;18.55;;;7.00;;
73512;SDS011;61754;55.008;73.348;2022-08-25T12:40:37;21.00;;;7.43;;
73512;SDS011;61754;55.008;73.348;2022-08-25T12:43:08;22.55;;;7.40;;
73512;SDS011;61754;55.008;73.348;2022-08-25T12:45:36;21.17;;;7.32;;
73512;SDS011;61754;55.008;73.348;2022-08-25T12:50:47;24.70;;;8.73;;
73512;SDS011;61754;55.008;73.348;2022-08-25T12:53:24;18.92;;;7.28;;
73512;SDS011;61754;55.008;73.348;2022-08-25T12:55:59;14.70;;;6.95;;
73512;SDS011;61754;55.008;73.348;2022-08-25T12:58:35;19.02;;;7.20;;
73512;SDS011;61754;55.008;73.348;2022-08-25T13:14:02;26.98;;;7.70;;
73512;SDS011;61754;55.008;73.348;2022-08-25T13:16:29;28.48;;;7.55;;
73512;SDS011;61754;55.008;73.348;2022-08-25T13:18:56;27.45;;;7.93;;
73512;SDS011;61754;55.008;73.348;2022-08-25T13:24:06;24.70;;;8.48;;
73512;SDS011;61754;55.008;73.348;2022-08-25T13:26:36;20.98;;;8.60;;
73512;SDS011;61754;55.008;73.348;2022-08-25T13:31:33;22.67;;;8.57;;
73512;SDS011;61754;55.008;73.348;2022-08-25T13:34:00;23.98;;;9.40;;
73512;SDS011;61754;55.008;73.348;2022-08-25T13:36:27;21.48;;;9.13;;
73512;SDS011;61754;55.008;73.348;2022-08-25T13:39:19;17.95;;;8.65;;
73512;SDS011;61754;55.008;73.348;2022-08-25T13:41:46;21.17;;;8.63;;
73512;SDS011;61754;55.008;73.348;2022-08-25T13:44:24;18.23;;;8.98;;
73512;SDS011;61754;55.008;73.348;2022-08-25T13:49:35;24.08;;;8.82;;
73512;SDS011;61754;55.008;73.348;2022-08-25T13:52:02;28.30;;;9.98;;
73512;SDS011;61754;55.008;73.348;2022-08-25T13:54:38;36.58;;;22.35;;
73512;SDS011;61754;55.008;73.348;2022-08-25T13:57:13;22.85;;;9.98;;
73512;SDS011;61754;55.008;73.348;2022-08-25T13:59:42;21.92;;;9.65;;
73512;SDS011;61754;55.008;73.348;2022-08-25T14:02:09;20.55;;;9.45;;
73512;SDS011;61754;55.008;73.348;2022-08-25T14:15:11;22.27;;;11.00;;
73512;SDS011;61754;55.008;73.348;2022-08-25T14:17:39;23.20;;;10.65;;
73512;SDS011;61754;55.008;73.348;2022-08-25T14:20:27;25.52;;;12.27;;
73512;SDS011;61754;55.008;73.348;2022-08-25T14:23:05;31.00;;;12.43;;
73512;SDS011;61754;55.008;73.348;2022-08-25T14:25:38;27.05;;;12.38;;
73512;SDS011;61754;55.008;73.348;2022-08-25T14:28:13;26.23;;;11.48;;
73512;SDS011;61754;55.008;73.348;2022-08-25T14:30:41;32.58;;;14.70;;
73512;SDS011;61754;55.008;73.348;2022-08-25T14:33:13;35.78;;;14.70;;
73512;SDS011;61754;55.008;73.348;2022-08-25T14:35:51;34.00;;;14.27;;
73512;SDS011;61754;55.008;73.348;2022-08-25T14:38:28;35.25;;;15.60;;
73512;SDS011;61754;55.008;73.348;2022-08-25T14:40:54;35.47;;;15.32;;
73512;SDS011;61754;55.008;73.348;2022-08-25T14:43:20;34.70;;;15.98;;
73512;SDS011;61754;55.008;73.348;2022-08-25T14:45:46;31.80;;;15.05;;
73512;SDS011;61754;55.008;73.348;2022-08-25T14:48:24;32.55;;;16.35;;
73512;SDS011;61754;55.008;73.348;2022-08-25T14:50:57;27.13;;;15.13;;
73512;SDS011;61754;55.008;73.348;2022-08-25T14:53:23;36.60;;;15.95;;
73512;SDS011;61754;55.008;73.348;2022-08-25T14:55:49;31.65;;;14.88;;
73512;SDS011;61754;55.008;73.348;2022-08-25T14:58:20;27.63;;;14.38;;
73512;SDS011;61754;55.008;73.348;2022-08-25T15:00:46;30.08;;;15.50;;
73512;SDS011;61754;55.008;73.348;2022-08-25T15:03:41;28.25;;;15.38;;
73512;SDS011;61754;55.008;73.348;2022-08-25T15:06:07;25.95;;;15.55;;
73512;SDS011;61754;55.008;73.348;2022-08-25T15:08:45;34.42;;;16.08;;
73512;SDS011;61754;55.008;73.348;2022-08-25T15:11:30;34.10;;;16.13;;
73512;SDS011;61754;55.008;73.348;2022-08-25T15:13:56;26.48;;;15.88;;
73512;SDS011;61754;55.008;73.348;2022-08-25T15:16:27;38.10;;;17.30;;
73512;SDS011;61754;55.008;73.348;2022-08-25T15:18:53;33.05;;;16.75;;
73512;SDS011;61754;55.008;73.348;2022-08-25T15:21:21;29.35;;;16.95;;
73512;SDS011;61754;55.008;73.348;2022-08-25T15:23:49;26.75;;;17.20;;
73512;SDS011;61754;55.008;73.348;2022-08-25T15:26:15;33.60;;;15.32;;
73512;SDS011;61754;55.008;73.348;2022-08-25T15:28:52;24.92;;;15.88;;
73512;SDS011;61754;55.008;73.348;2022-08-25T15:31:28;29.42;;;14.75;;
73512;SDS011;61754;55.008;73.348;2022-08-25T15:34:05;24.48;;;15.35;;
73512;SDS011;61754;55.008;73.348;2022-08-25T15:36:32;27.08;;;15.15;;
73512;SDS011;61754;55.008;73.348;2022-08-25T15:39:09;33.45;;;15.98;;
73512;SDS011;61754;55.008;73.348;2022-08-25T15:41:44;24.48;;;14.38;;
73512;SDS011;61754;55.008;73.348;2022-08-25T15:44:11;25.77;;;15.10;;
73512;SDS011;61754;55.008;73.348;2022-08-25T15:46:37;30.17;;;15.07;;
73512;SDS011;61754;55.008;73.348;2022-08-25T15:49:04;29.05;;;15.27;;
73512;SDS011;61754;55.008;73.348;2022-08-25T15:51:30;27.25;;;14.88;;
73512;SDS011;61754;55.008;73.348;2022-08-25T15:53:56;27.13;;;14.05;;
73512;SDS011;61754;55.008;73.348;2022-08-25T15:56:32;20.98;;;13.50;;
73512;SDS011;61754;55.008;73.348;2022-08-25T15:58:58;20.48;;;12.52;;
73512;SDS011;61754;55.008;73.348;2022-08-25T16:01:25;23.58;;;13.07;;
73512;SDS011;61754;55.008;73.348;2022-08-25T16:03:52;22.27;;;13.30;;
73512;SDS011;61754;55.008;73.348;2022-08-25T16:06:20;22.42;;;13.75;;
73512;SDS011;61754;55.008;73.348;2022-08-25T16:08:51;20.60;;;13.45;;
73512;SDS011;61754;55.008;73.348;2022-08-25T16:11:23;19.88;;;13.63;;
73512;SDS011;61754;55.008;73.348;2022-08-25T16:13:52;29.48;;;14.35;;
73512;SDS011;61754;55.008;73.348;2022-08-25T16:16:24;28.00;;;15.13;;
73512;SDS011;61754;55.008;73.348;2022-08-25T16:18:50;22.40;;;14.80;;
73512;SDS011;61754;55.008;73.348;2022-08-25T16:21:18;23.95;;;13.68;;
73512;SDS011;61754;55.008;73.348;2022-08-25T16:23:55;31.98;;;20.40;;
73512;SDS011;61754;55.008;73.348;2022-08-25T16:26:21;27.77;;;14.40;;